Time;durP1;ratioP1;P1;durP2;ratioP2;P2;SDS_P1;SDS_P2;PMS_P1;PMS_P2;Temp;Humidity;BMP_temperature;BMP_pressure;BME280_temperature;BME280_humidity;BME280_pressure;Samples;Min_cycle;Max_cycle;Signal;HPM_P1;HPM_P2
2022/11/13 00:00:00;;;;;;;3.43;3.13;;;11.60;83.30;;;;;;4959082;28;20542;-70
2022/11/13 00:02:47;;;;;;;3.13;2.70;;;11.60;83.50;;;;;;4962783;28;20481;-70
2022/11/13 00:05:34;;;;;;;4.07;3.50;;;11.60;83.50;;;;;;4985193;28;20435;-70
2022/11/13 00:08:22;;;;;;;3.70;3.40;;;11.60;83.40;;;;;;4973699;28;20422;-70
2022/11/13 00:11:11;;;;;;;3.93;3.40;;;11.60;83.30;;;;;;4967066;28;20478;-70
2022/11/13 00:13:58;;;;;;;2.90;2.70;;;11.60;83.10;;;;;;4968958;28;20446;-70
2022/11/13 00:16:45;;;;;;;3.63;3.33;;;11.60;83.10;;;;;;4974809;28;20505;-70
2022/11/13 00:19:32;;;;;;;4.07;3.63;;;11.60;83.00;;;;;;4975529;28;20552;-70
2022/11/13 00:22:19;;;;;;;5.60;4.07;;;11.60;83.00;;;;;;4965187;28;20470;-70
2022/11/13 00:25:08;;;;;;;4.43;3.37;;;11.60;83.00;;;;;;4964247;28;20452;-70
2022/11/13 00:27:55;;;;;;;3.50;3.20;;;11.50;83.10;;;;;;4963102;28;20801;-70
2022/11/13 00:30:42;;;;;;;5.60;4.23;;;11.60;83.70;;;;;;4966339;28;20850;-70
2022/11/13 00:33:30;;;;;;;3.57;3.10;;;11.50;83.00;;;;;;4975656;28;20454;-70
2022/11/13 00:36:37;;;;;;;4.33;3.90;;;11.50;83.20;;;;;;4949585;28;20550;-70
2022/11/13 00:39:24;;;;;;;3.97;3.60;;;11.50;82.90;;;;;;4945993;28;20830;-70
2022/11/13 00:42:12;;;;;;;6.03;5.43;;;11.50;83.10;;;;;;4937495;28;20479;-70
2022/11/13 00:44:59;;;;;;;4.20;3.90;;;11.50;83.10;;;;;;4943543;29;20448;-70
2022/11/13 00:47:46;;;;;;;4.53;3.60;;;11.50;83.00;;;;;;4942612;29;20963;-70
2022/11/13 00:50:33;;;;;;;4.17;3.80;;;11.50;83.10;;;;;;4947856;28;20990;-70
2022/11/13 00:53:19;;;;;;;3.60;3.30;;;11.50;82.90;;;;;;4941050;29;20966;-70
2022/11/13 00:56:06;;;;;;;4.17;3.37;;;11.50;82.90;;;;;;4949175;29;20443;-70
2022/11/13 00:58:55;;;;;;;4.00;3.70;;;11.50;83.00;;;;;;4948726;29;20451;-70
2022/11/13 01:01:42;;;;;;;3.07;2.77;;;11.50;83.10;;;;;;4960959;28;20491;-70
2022/11/13 01:04:29;;;;;;;4.47;3.87;;;11.50;83.00;;;;;;4983074;28;20888;-70
2022/11/13 01:07:15;;;;;;;3.67;3.37;;;11.50;82.80;;;;;;4968008;28;20462;-70
2022/11/13 01:10:03;;;;;;;4.27;3.70;;;11.50;82.80;;;;;;4973816;28;20985;-70
2022/11/13 01:12:49;;;;;;;4.53;4.10;;;11.60;82.60;;;;;;4961992;28;20514;-70
2022/11/13 01:15:40;;;;;;;3.63;3.30;;;11.50;82.60;;;;;;4965728;28;20802;-70
2022/11/13 01:18:27;;;;;;;5.23;3.90;;;11.50;82.80;;;;;;4975206;28;20450;-70
2022/11/13 01:21:17;;;;;;;4.27;3.87;;;11.50;82.70;;;;;;4983492;28;20876;-70
2022/11/13 01:24:04;;;;;;;4.57;3.80;;;11.50;82.40;;;;;;4974940;28;20486;-70
2022/11/13 01:26:51;;;;;;;4.00;3.70;;;11.50;82.60;;;;;;4961586;28;21028;-70
2022/11/13 01:29:38;;;;;;;4.37;3.60;;;11.50;82.60;;;;;;4977892;28;20770;-70
2022/11/13 01:32:27;;;;;;;4.37;3.97;;;11.50;82.90;;;;;;4967514;28;20463;-70
2022/11/13 01:35:13;;;;;;;3.83;3.50;;;11.50;82.30;;;;;;4976036;28;20492;-70
2022/11/13 01:38:00;;;;;;;4.03;3.73;;;11.50;82.60;;;;;;4971548;28;20973;-70
2022/11/13 01:40:48;;;;;;;3.90;3.43;;;11.50;82.20;;;;;;4964678;28;20462;-70
2022/11/13 01:43:37;;;;;;;4.10;3.53;;;11.50;82.40;;;;;;4964729;28;20838;-70
2022/11/13 01:46:29;;;;;;;4.90;4.50;;;11.50;82.30;;;;;;4955041;28;20522;-70
2022/11/13 01:49:29;;;;;;;3.20;3.00;;;11.40;82.20;;;;;;4978283;28;20537;-70
2022/11/13 01:52:19;;;;;;;3.77;3.23;;;11.40;82.30;;;;;;4971193;28;20477;-70
2022/11/13 01:55:11;;;;;;;4.33;3.70;;;11.40;82.30;;;;;;4973831;28;20461;-70
2022/11/13 01:57:59;;;;;;;4.43;4.03;;;11.40;82.20;;;;;;4971506;28;20446;-70
2022/11/13 02:00:46;;;;;;;3.70;3.30;;;11.40;81.90;;;;;;4970479;28;20461;-70
2022/11/13 02:03:32;;;;;;;5.87;4.17;;;11.40;82.30;;;;;;4990591;28;20470;-70
2022/11/13 02:06:21;;;;;;;5.00;3.63;;;11.40;82.10;;;;;;4982723;28;20461;-70
2022/11/13 02:09:09;;;;;;;4.60;4.10;;;11.40;82.10;;;;;;4969964;28;20447;-69
2022/11/13 02:11:57;;;;;;;3.80;3.50;;;11.40;82.10;;;;;;4980610;28;20461;-70
2022/11/13 02:14:47;;;;;;;3.93;3.53;;;11.40;82.20;;;;;;4965899;28;20458;-70
2022/11/13 02:17:40;;;;;;;3.80;3.50;;;11.40;82.10;;;;;;4970519;28;20474;-70
2022/11/13 02:20:35;;;;;;;4.00;3.50;;;11.40;82.20;;;;;;4972451;28;20458;-70
2022/11/13 02:23:30;;;;;;;3.60;3.30;;;11.40;82.50;;;;;;4971387;28;20675;-70
2022/11/13 02:26:21;;;;;;;3.30;3.00;;;11.30;81.90;;;;;;4974022;28;20817;-70
2022/11/13 02:29:08;;;;;;;5.87;3.60;;;11.40;82.20;;;;;;4970364;28;20525;-70
2022/11/13 02:31:55;;;;;;;3.63;3.33;;;11.40;82.00;;;;;;4958798;28;20494;-70
2022/11/13 02:34:42;;;;;;;4.57;3.93;;;11.40;81.90;;;;;;4974534;28;20444;-70
2022/11/13 02:37:29;;;;;;;4.07;3.67;;;11.30;82.00;;;;;;4973404;28;20455;-70
2022/11/13 02:40:17;;;;;;;3.73;3.37;;;11.40;81.70;;;;;;4976320;28;21011;-70
2022/11/13 02:43:05;;;;;;;5.27;4.37;;;11.30;81.80;;;;;;4977385;28;20430;-70
2022/11/13 02:45:52;;;;;;;5.40;4.00;;;11.30;81.70;;;;;;5006394;22;20575;-53
2022/11/13 02:48:39;;;;;;;4.83;4.33;;;11.30;82.00;;;;;;4992555;28;20808;-54
2022/11/13 02:51:26;;;;;;;4.47;4.00;;;11.30;81.70;;;;;;4984958;28;20474;-53
2022/11/13 02:54:13;;;;;;;4.03;3.63;;;11.30;81.90;;;;;;4968376;28;20466;-52
2022/11/13 02:57:03;;;;;;;3.57;3.27;;;11.30;81.80;;;;;;4977056;28;20570;-52
2022/11/13 02:59:52;;;;;;;4.70;3.50;;;11.30;81.80;;;;;;4979932;28;20435;-53
2022/11/13 03:02:39;;;;;;;4.73;4.30;;;11.30;82.60;;;;;;4983498;28;20469;-51
2022/11/13 03:05:26;;;;;;;3.40;3.03;;;11.30;81.90;;;;;;4985004;28;20556;-53
2022/11/13 03:08:13;;;;;;;3.93;3.63;;;11.30;82.10;;;;;;4986437;28;20449;-51
2022/11/13 03:11:06;;;;;;;3.80;3.47;;;11.30;82.00;;;;;;4991865;28;20440;-52
2022/11/13 03:13:53;;;;;;;6.70;3.80;;;11.30;82.00;;;;;;4980150;28;20458;-52
2022/11/13 03:16:42;;;;;;;3.83;3.50;;;11.30;81.50;;;;;;4980786;28;20984;-52
2022/11/13 03:19:29;;;;;;;4.00;3.70;;;11.30;81.40;;;;;;4988080;28;20521;-53
2022/11/13 03:22:16;;;;;;;4.00;3.70;;;11.30;81.30;;;;;;4972407;28;20485;-49
2022/11/13 03:25:05;;;;;;;6.13;4.03;;;11.30;81.40;;;;;;4968400;28;20608;-50
2022/11/13 03:27:56;;;;;;;4.57;3.83;;;11.30;81.20;;;;;;4970864;28;20484;-52
2022/11/13 03:30:43;;;;;;;4.17;3.67;;;11.30;81.00;;;;;;4964506;28;20533;-51
2022/11/13 03:33:32;;;;;;;4.27;3.67;;;11.30;81.40;;;;;;4960061;28;20459;-52
2022/11/13 03:36:19;;;;;;;4.77;4.20;;;11.30;81.60;;;;;;4967197;28;20565;-52
2022/11/13 03:39:06;;;;;;;7.47;3.70;;;11.30;81.50;;;;;;4970538;28;20726;-49
2022/11/13 03:41:53;;;;;;;4.57;3.60;;;11.30;81.60;;;;;;4966000;28;20483;-51
2022/11/13 03:44:40;;;;;;;4.70;3.80;;;11.30;81.50;;;;;;4962619;28;20557;-52
2022/11/13 03:47:28;;;;;;;4.40;4.03;;;11.30;81.00;;;;;;4954683;28;20819;-51
2022/11/13 03:50:16;;;;;;;4.70;3.60;;;11.30;81.30;;;;;;4952740;28;20435;-51
2022/11/13 03:53:03;;;;;;;4.93;4.43;;;11.30;81.10;;;;;;4960922;28;20470;-52
2022/11/13 03:55:50;;;;;;;4.00;3.60;;;11.30;80.80;;;;;;4962277;28;20830;-51
2022/11/13 03:58:38;;;;;;;3.77;3.30;;;11.30;80.80;;;;;;4956035;28;20553;-50
2022/11/13 04:01:26;;;;;;;3.40;3.10;;;11.30;81.40;;;;;;4971549;28;21004;-51
2022/11/13 04:04:13;;;;;;;3.90;3.53;;;11.30;81.20;;;;;;4988339;28;20594;-51
2022/11/13 04:07:01;;;;;;;3.10;2.80;;;11.30;81.00;;;;;;4983931;28;20472;-49
2022/11/13 04:09:49;;;;;;;4.70;3.40;;;11.30;80.90;;;;;;4979642;28;20446;-53
2022/11/13 04:12:35;;;;;;;3.70;3.40;;;11.30;81.00;;;;;;4982183;28;20858;-53
2022/11/13 04:15:23;;;;;;;5.10;3.73;;;11.30;81.00;;;;;;4989824;28;20445;-51
2022/11/13 04:18:10;;;;;;;3.93;3.63;;;11.30;81.00;;;;;;4983347;28;20832;-51
2022/11/13 04:20:59;;;;;;;4.73;4.23;;;11.30;81.00;;;;;;4982578;28;20480;-50
2022/11/13 04:23:47;;;;;;;4.33;3.93;;;11.30;79.80;;;;;;4986130;28;20465;-50
2022/11/13 04:26:34;;;;;;;3.63;3.13;;;11.30;79.90;;;;;;4969570;28;20529;-50
2022/11/13 04:29:21;;;;;;;4.20;3.70;;;11.30;79.90;;;;;;4967426;28;20533;-52
2022/11/13 04:32:11;;;;;;;5.00;4.20;;;11.30;80.10;;;;;;4976632;28;20482;-52
2022/11/13 04:34:58;;;;;;;4.40;4.00;;;11.20;79.50;;;;;;4972044;28;20437;-52
2022/11/13 04:37:46;;;;;;;5.17;3.80;;;11.20;80.30;;;;;;4952585;28;21047;-50
2022/11/13 04:40:34;;;;;;;5.17;3.70;;;11.30;80.00;;;;;;4969445;28;20453;-51
2022/11/13 04:43:20;;;;;;;3.80;3.07;;;11.20;79.70;;;;;;4967729;28;20474;-52
2022/11/13 04:46:07;;;;;;;3.50;3.20;;;11.20;80.00;;;;;;4973939;28;20465;-52
2022/11/13 04:48:54;;;;;;;5.20;4.77;;;11.20;80.20;;;;;;4989856;28;20437;-50
2022/11/13 04:51:41;;;;;;;4.80;3.60;;;11.20;79.70;;;;;;4971222;28;20570;-51
2022/11/13 04:54:27;;;;;;;4.37;3.97;;;11.20;79.70;;;;;;4981312;28;20426;-51
2022/11/13 04:57:16;;;;;;;4.30;3.80;;;11.20;79.40;;;;;;4989772;28;20505;-50
2022/11/13 05:00:05;;;;;;;3.83;3.47;;;11.20;79.50;;;;;;4974480;28;20454;-50
2022/11/13 05:02:52;;;;;;;4.33;3.93;;;11.20;80.00;;;;;;4990408;28;20462;-52
2022/11/13 05:05:39;;;;;;;6.23;3.43;;;11.10;79.40;;;;;;4991018;28;20465;-50
2022/11/13 05:08:26;;;;;;;5.40;3.40;;;11.10;80.00;;;;;;4984247;28;20438;-49
2022/11/13 05:11:14;;;;;;;3.73;3.10;;;11.20;80.20;;;;;;4981024;28;20622;-51
2022/11/13 05:14:04;;;;;;;4.90;3.80;;;11.20;80.20;;;;;;4978194;28;20442;-50
2022/11/13 05:16:51;;;;;;;4.10;3.70;;;11.20;80.00;;;;;;4982323;28;20490;-52
2022/11/13 05:19:38;;;;;;;4.77;3.70;;;11.20;79.80;;;;;;4986428;28;20452;-51
2022/11/13 05:22:25;;;;;;;4.47;3.33;;;11.20;79.40;;;;;;4978063;28;20613;-50
2022/11/13 05:25:13;;;;;;;4.57;3.43;;;11.20;79.80;;;;;;4989850;28;20595;-49
2022/11/13 05:27:59;;;;;;;3.83;3.53;;;11.20;79.60;;;;;;4985702;28;20467;-52
2022/11/13 05:30:48;;;;;;;5.37;3.90;;;11.10;79.60;;;;;;4986038;28;20489;-51
2022/11/13 05:33:35;;;;;;;3.97;3.47;;;11.20;79.50;;;;;;4982654;28;21057;-52
2022/11/13 05:36:23;;;;;;;4.83;3.67;;;11.10;78.90;;;;;;4985261;28;21113;-50
2022/11/13 05:39:11;;;;;;;3.70;3.00;;;11.10;79.30;;;;;;4981193;28;20453;-52
2022/11/13 05:41:58;;;;;;;3.80;3.33;;;11.20;79.90;;;;;;4976368;28;20537;-52
2022/11/13 05:44:45;;;;;;;4.30;3.43;;;11.20;80.60;;;;;;4982349;28;21048;-50
2022/11/13 05:47:34;;;;;;;4.43;3.47;;;11.20;79.90;;;;;;4976689;28;20880;-51
2022/11/13 05:50:21;;;;;;;4.60;3.80;;;11.20;79.30;;;;;;4978287;28;20446;-51
2022/11/13 05:53:08;;;;;;;6.23;2.83;;;11.20;79.50;;;;;;4992999;28;20468;-50
2022/11/13 05:56:00;;;;;;;2.83;2.57;;;11.20;79.10;;;;;;4991742;28;20941;-50
2022/11/13 05:58:47;;;;;;;5.80;2.93;;;11.10;79.30;;;;;;4980214;28;20524;-51
2022/11/13 06:01:37;;;;;;;4.80;3.50;;;11.10;79.60;;;;;;4975806;28;20963;-50
2022/11/13 06:04:25;;;;;;;6.70;3.13;;;11.20;79.00;;;;;;4969109;28;20439;-50
2022/11/13 06:07:13;;;;;;;5.33;4.00;;;11.10;79.20;;;;;;4986451;28;20576;-51
2022/11/13 06:10:00;;;;;;;4.77;3.43;;;11.10;79.50;;;;;;4993271;28;20771;-51
2022/11/13 06:12:47;;;;;;;3.07;2.73;;;11.10;79.10;;;;;;4993283;28;20462;-51
2022/11/13 06:15:33;;;;;;;3.90;3.07;;;11.10;78.90;;;;;;4992060;28;20983;-50
2022/11/13 06:18:24;;;;;;;4.00;3.17;;;11.10;78.90;;;;;;4982824;28;20966;-49
2022/11/13 06:21:16;;;;;;;4.10;3.20;;;11.10;80.40;;;;;;4966311;28;20863;-50
2022/11/13 06:24:03;;;;;;;4.40;2.90;;;11.10;79.00;;;;;;4973378;28;20482;-50
2022/11/13 06:26:50;;;;;;;3.07;2.50;;;11.10;79.60;;;;;;4965909;28;20880;-50
2022/11/13 06:29:37;;;;;;;3.10;2.20;;;11.10;79.50;;;;;;4955189;28;20447;-51
2022/11/13 06:32:24;;;;;;;3.70;3.13;;;11.10;79.70;;;;;;4983531;28;20494;-52
2022/11/13 06:35:11;;;;;;;2.93;2.60;;;11.10;79.80;;;;;;4988838;28;20913;-51
2022/11/13 06:38:00;;;;;;;6.87;2.83;;;11.10;79.80;;;;;;4981758;28;20920;-51
2022/11/13 06:40:47;;;;;;;2.80;2.60;;;11.10;79.80;;;;;;4982634;28;20445;-50
2022/11/13 06:43:34;;;;;;;2.90;2.60;;;11.20;79.90;;;;;;4989235;28;20461;-49
2022/11/13 06:46:22;;;;;;;2.40;2.20;;;11.20;79.90;;;;;;4959762;28;20826;-50
2022/11/13 06:49:10;;;;;;;3.00;2.70;;;11.20;79.80;;;;;;4973440;28;20449;-50
2022/11/13 06:51:57;;;;;;;2.10;1.90;;;11.20;79.80;;;;;;4988490;28;20480;-49
2022/11/13 06:54:45;;;;;;;2.73;2.50;;;11.20;79.90;;;;;;4987228;28;20474;-52
2022/11/13 06:57:33;;;;;;;2.83;2.57;;;11.20;79.80;;;;;;4991893;28;20516;-51
2022/11/13 07:00:20;;;;;;;2.40;2.17;;;11.20;79.70;;;;;;4986443;28;20449;-51
2022/11/13 07:03:15;;;;;;;3.47;2.43;;;11.20;79.70;;;;;;4988353;28;20971;-50
2022/11/13 07:06:03;;;;;;;3.40;3.10;;;11.20;79.60;;;;;;4976650;28;21118;-50
2022/11/13 07:08:51;;;;;;;3.10;2.80;;;11.20;79.80;;;;;;4971835;28;20443;-51
2022/11/13 07:11:40;;;;;;;3.03;2.73;;;11.20;79.70;;;;;;4963925;28;20491;-51
2022/11/13 07:14:27;;;;;;;3.43;2.50;;;11.20;79.70;;;;;;4963637;28;20521;-49
2022/11/13 07:17:14;;;;;;;3.27;2.63;;;11.20;79.70;;;;;;4988124;28;20485;-52
2022/11/13 07:20:00;;;;;;;3.13;2.70;;;11.10;79.60;;;;;;4990046;28;20944;-50
2022/11/13 07:22:48;;;;;;;3.10;2.80;;;11.10;79.70;;;;;;4982232;28;20458;-50
2022/11/13 07:25:35;;;;;;;3.73;2.87;;;11.10;79.50;;;;;;4991427;28;20457;-50
2022/11/13 07:28:23;;;;;;;3.40;2.60;;;11.10;79.40;;;;;;4975894;28;20650;-51
2022/11/13 07:31:13;;;;;;;3.03;2.70;;;11.10;79.30;;;;;;4989494;28;20548;-50
2022/11/13 07:34:00;;;;;;;3.30;2.77;;;11.10;79.50;;;;;;4981237;28;20427;-50
2022/11/13 07:36:47;;;;;;;3.83;3.00;;;11.10;79.40;;;;;;4965732;28;20845;-50
2022/11/13 07:39:35;;;;;;;3.70;2.37;;;11.10;79.60;;;;;;4983852;28;20827;-50
2022/11/13 07:42:22;;;;;;;3.70;2.83;;;11.10;79.50;;;;;;4956597;28;20683;-49
2022/11/13 07:45:11;;;;;;;2.67;2.47;;;11.10;79.40;;;;;;4966818;28;20447;-51
2022/11/13 07:47:59;;;;;;;3.10;2.43;;;11.10;79.50;;;;;;4972259;28;20530;-52
2022/11/13 07:50:46;;;;;;;3.17;2.77;;;11.10;79.40;;;;;;4974960;28;20479;-50
2022/11/13 07:53:34;;;;;;;2.97;2.67;;;11.10;79.40;;;;;;4981968;28;20473;-51
2022/11/13 07:56:24;;;;;;;3.23;2.87;;;11.00;79.50;;;;;;4974118;28;20565;-51
2022/11/13 07:59:11;;;;;;;3.20;2.60;;;11.00;79.60;;;;;;4988011;28;20442;-50
2022/11/13 08:01:59;;;;;;;3.43;2.20;;;11.00;79.30;;;;;;4968744;28;20502;-50
2022/11/13 08:04:46;;;;;;;2.53;2.27;;;11.00;79.70;;;;;;4962431;28;20550;-50
2022/11/13 08:07:34;;;;;;;3.00;2.70;;;11.00;79.70;;;;;;4969162;28;20467;-51
2022/11/13 08:10:21;;;;;;;3.20;2.57;;;11.00;79.30;;;;;;4964117;28;20830;-52
2022/11/13 08:13:09;;;;;;;2.67;2.30;;;11.00;79.40;;;;;;4972530;28;20463;-50
2022/11/13 08:16:00;;;;;;;2.20;2.03;;;11.00;79.40;;;;;;4970939;28;21293;-50
2022/11/13 08:18:49;;;;;;;3.63;2.87;;;11.00;79.60;;;;;;4968554;28;20474;-51
2022/11/13 08:21:36;;;;;;;3.70;2.90;;;11.00;79.40;;;;;;4968538;28;20477;-50
2022/11/13 08:24:23;;;;;;;3.20;2.90;;;11.00;79.00;;;;;;4970486;28;20451;-50
2022/11/13 08:27:10;;;;;;;3.30;2.60;;;11.00;79.40;;;;;;4968447;28;21024;-51
2022/11/13 08:29:58;;;;;;;3.07;2.50;;;11.00;79.10;;;;;;4967171;28;20453;-48
2022/11/13 08:32:45;;;;;;;2.77;2.57;;;11.00;78.90;;;;;;4984182;28;20473;-50
2022/11/13 08:35:33;;;;;;;3.33;3.00;;;11.00;79.10;;;;;;4990700;28;20442;-50
2022/11/13 08:38:20;;;;;;;4.70;2.63;;;11.10;79.20;;;;;;4987473;28;20550;-48
2022/11/13 08:41:08;;;;;;;3.00;2.70;;;11.10;79.30;;;;;;4997606;28;20830;-50
2022/11/13 08:43:56;;;;;;;2.97;2.47;;;11.10;79.20;;;;;;5004927;28;20468;-52
2022/11/13 08:46:43;;;;;;;3.20;2.90;;;11.10;79.40;;;;;;4986438;28;20467;-50
2022/11/13 08:49:30;;;;;;;2.73;2.53;;;11.10;79.40;;;;;;4992815;22;20430;-48
2022/11/13 08:52:19;;;;;;;3.00;2.30;;;11.10;79.60;;;;;;5010681;28;20522;-49
2022/11/13 08:55:06;;;;;;;3.23;2.73;;;11.10;79.40;;;;;;4986090;28;20430;-50
2022/11/13 08:57:54;;;;;;;3.10;2.83;;;11.20;81.10;;;;;;4992044;28;20971;-49
2022/11/13 09:00:41;;;;;;;4.20;2.67;;;11.20;79.30;;;;;;4981354;28;20449;-49
2022/11/13 09:03:28;;;;;;;3.50;2.30;;;11.30;79.20;;;;;;5008286;28;20822;-50
2022/11/13 09:06:15;;;;;;;2.83;2.50;;;11.30;79.30;;;;;;4985250;28;20475;-49
2022/11/13 09:09:05;;;;;;;2.60;2.40;;;11.30;79.10;;;;;;4988124;28;20437;-50
2022/11/13 09:11:53;;;;;;;6.23;2.87;;;11.30;79.20;;;;;;4991361;28;20477;-50
2022/11/13 09:14:40;;;;;;;3.40;2.67;;;11.30;79.20;;;;;;4991203;28;20441;-50
2022/11/13 09:17:28;;;;;;;3.30;2.30;;;11.30;79.20;;;;;;4990716;28;20511;-49
2022/11/13 09:20:15;;;;;;;3.10;2.60;;;11.30;79.20;;;;;;4988615;28;20466;-49
2022/11/13 09:23:11;;;;;;;3.57;2.67;;;11.30;79.20;;;;;;4994376;28;20699;-49
2022/11/13 09:26:02;;;;;;;2.57;1.73;;;11.30;79.20;;;;;;4973806;28;20492;-49
2022/11/13 09:28:50;;;;;;;2.17;1.97;;;11.30;79.20;;;;;;4962646;28;20454;-50
2022/11/13 09:31:39;;;;;;;5.10;3.57;;;11.30;79.30;;;;;;4960253;28;20526;-50
2022/11/13 09:34:27;;;;;;;2.77;2.30;;;11.30;79.30;;;;;;4977713;28;20534;-50
2022/11/13 09:37:15;;;;;;;2.40;2.20;;;11.30;79.30;;;;;;4965754;28;20495;-50
2022/11/13 09:40:03;;;;;;;2.97;2.17;;;11.30;79.30;;;;;;4965784;28;20442;-49
2022/11/13 09:42:52;;;;;;;3.30;2.57;;;11.30;79.20;;;;;;4973484;28;20450;-49
2022/11/13 09:45:41;;;;;;;2.90;2.60;;;11.30;79.20;;;;;;4961365;28;20806;-49
2022/11/13 09:48:34;;;;;;;2.90;2.37;;;11.30;79.20;;;;;;4972258;28;20496;-49
2022/11/13 09:51:25;;;;;;;5.53;2.80;;;11.30;79.10;;;;;;4976093;28;20469;-49
2022/11/13 09:54:14;;;;;;;3.03;2.30;;;11.30;79.20;;;;;;4968213;28;20458;-49
2022/11/13 09:57:12;;;;;;;4.27;2.10;;;11.30;79.20;;;;;;4955204;28;20475;-49
2022/11/13 10:00:05;;;;;;;2.20;2.00;;;11.30;79.10;;;;;;4974997;28;20438;-50
2022/11/13 10:03:03;;;;;;;2.37;2.17;;;11.30;79.20;;;;;;4964708;28;21002;-49
2022/11/13 10:05:58;;;;;;;2.00;1.80;;;11.30;79.20;;;;;;4974408;28;20439;-49
2022/11/13 10:08:53;;;;;;;2.23;2.03;;;11.30;79.30;;;;;;4967653;28;20471;-49
2022/11/13 10:11:46;;;;;;;2.60;2.40;;;11.30;79.40;;;;;;4962686;28;20474;-49
2022/11/13 10:14:36;;;;;;;2.50;2.30;;;11.30;79.30;;;;;;4979535;28;20524;-49
2022/11/13 10:17:32;;;;;;;2.30;1.87;;;11.30;79.40;;;;;;4970027;28;20623;-49
2022/11/13 10:20:24;;;;;;;2.87;2.40;;;11.30;79.30;;;;;;4971318;28;20483;-49
2022/11/13 10:23:17;;;;;;;2.70;1.80;;;11.30;79.40;;;;;;4980790;28;20454;-49
2022/11/13 10:26:14;;;;;;;2.33;2.13;;;11.30;79.40;;;;;;4962708;28;20828;-56
2022/11/13 10:29:10;;;;;;;2.07;1.87;;;11.30;79.40;;;;;;4966936;28;20432;-49
2022/11/13 10:31:58;;;;;;;1.90;1.80;;;11.30;79.40;;;;;;4962677;28;20566;-49
2022/11/13 10:34:51;;;;;;;2.27;1.80;;;11.30;79.40;;;;;;4971557;28;20502;-49
2022/11/13 10:37:52;;;;;;;2.87;2.50;;;11.30;79.40;;;;;;4967663;28;20472;-49
2022/11/13 10:40:41;;;;;;;1.80;1.70;;;11.30;79.40;;;;;;4958863;28;20446;-49
2022/11/13 10:43:28;;;;;;;2.57;2.37;;;11.30;79.40;;;;;;4970476;28;20458;-49
2022/11/13 10:46:20;;;;;;;2.77;1.80;;;11.30;79.50;;;;;;4960750;28;20466;-49
2022/11/13 10:49:13;;;;;;;2.00;1.90;;;11.30;79.40;;;;;;4963403;28;20435;-49
2022/11/13 10:52:02;;;;;;;2.27;2.07;;;11.30;79.60;;;;;;4962396;28;21004;-50
2022/11/13 10:55:15;;;;;;;2.70;2.47;;;11.30;79.60;;;;;;4954688;28;20436;-49
2022/11/13 10:58:04;;;;;;;2.87;2.57;;;11.30;79.60;;;;;;4956106;28;20831;-49
2022/11/13 11:00:51;;;;;;;2.20;2.00;;;11.30;79.60;;;;;;4960792;28;20459;-49
2022/11/13 11:03:49;;;;;;;5.03;1.80;;;11.30;79.70;;;;;;4961579;28;20982;-49
2022/11/13 11:06:59;;;;;;;1.53;1.43;;;11.30;79.70;;;;;;4959979;28;20558;-49
2022/11/13 11:13:50;;;;;;;2.17;1.97;;;11.30;79.60;;;;;;4956511;28;20463;-49
2022/11/13 11:17:10;;;;;;;2.03;1.83;;;11.30;79.70;;;;;;4957846;28;20617;-49
2022/11/13 11:20:49;;;;;;;;;;;;;;;;;;;;;
2022/11/13 11:27:16;;;;;;;2.20;1.60;;;11.30;79.70;;;;;;4961501;28;21121;-50
2022/11/13 11:30:41;;;;;;;2.73;2.17;;;11.30;79.70;;;;;;4972412;28;20538;-50
2022/11/13 11:38:05;;;;;;;1.93;1.83;;;11.30;79.80;;;;;;4928512;28;20482;-50
2022/11/13 11:41:29;;;;;;;1.77;1.67;;;11.30;79.80;;;;;;4956993;28;20434;-50
2022/11/13 11:44:36;;;;;;;1.60;1.50;;;11.30;79.90;;;;;;4960936;28;20454;-50
2022/11/13 11:47:25;;;;;;;1.87;1.67;;;11.20;79.80;;;;;;4979024;28;21015;-50
2022/11/13 11:50:14;;;;;;;1.83;1.70;;;11.30;79.90;;;;;;4993278;28;20548;-51
2022/11/13 11:53:06;;;;;;;1.77;1.40;;;11.30;80.00;;;;;;4963301;28;20533;-50
2022/11/13 11:56:26;;;;;;;1.80;1.50;;;11.30;80.00;;;;;;4962870;28;20446;-50
2022/11/13 11:59:30;;;;;;;2.23;1.83;;;11.30;79.90;;;;;;4921897;28;20439;-49
2022/11/13 12:02:59;;;;;;;1.97;1.77;;;11.30;80.00;;;;;;4968746;28;20529;-50
2022/11/13 12:05:57;;;;;;;2.10;1.60;;;11.30;79.90;;;;;;4966180;28;20450;-50
2022/11/13 12:08:54;;;;;;;2.60;1.80;;;11.30;80.00;;;;;;4962616;28;20475;-49
2022/11/13 12:11:51;;;;;;;2.47;2.10;;;11.30;80.00;;;;;;4963766;28;20464;-49
2022/11/13 12:14:46;;;;;;;1.50;1.40;;;11.30;80.00;;;;;;4953072;28;20440;-49
2022/11/13 12:17:52;;;;;;;1.87;1.70;;;11.30;80.00;;;;;;4964714;28;20819;-50
2022/11/13 12:20:46;;;;;;;1.47;1.33;;;11.30;80.10;;;;;;4962530;28;20446;-50
2022/11/13 12:23:44;;;;;;;1.77;1.67;;;11.30;80.20;;;;;;4971284;28;20465;-50
2022/11/13 12:26:41;;;;;;;2.10;1.80;;;11.30;80.20;;;;;;4964841;28;20974;-50
2022/11/13 12:29:46;;;;;;;1.47;1.37;;;11.30;80.20;;;;;;4963272;28;20488;-49
2022/11/13 12:32:46;;;;;;;1.20;1.10;;;11.30;81.50;;;;;;4956718;28;20833;-49
2022/11/13 12:35:48;;;;;;;2.13;1.40;;;11.30;80.50;;;;;;4952763;28;20497;-48
2022/11/13 12:42:22;;;;;;;1.80;1.53;;;11.30;80.20;;;;;;4961575;28;20481;-50
2022/11/13 12:45:35;;;;;;;2.43;1.70;;;11.30;80.10;;;;;;4969609;28;20490;-50
2022/11/13 12:48:36;;;;;;;1.70;1.60;;;11.30;80.00;;;;;;4972422;23;20887;-70
2022/11/13 12:51:23;;;;;;;2.27;1.70;;;11.30;80.10;;;;;;4967796;28;20470;-70
2022/11/13 12:54:11;;;;;;;1.60;1.33;;;11.30;80.20;;;;;;4966866;28;20513;-70
2022/11/13 12:57:18;;;;;;;1.70;1.57;;;11.30;80.20;;;;;;4966561;28;20478;-70
2022/11/13 13:00:23;;;;;;;1.57;1.47;;;11.30;80.20;;;;;;4967002;28;20454;-70
2022/11/13 13:03:27;;;;;;;3.77;1.90;;;11.30;80.30;;;;;;4966563;28;20450;-70
2022/11/13 13:06:33;;;;;;;1.40;1.17;;;11.30;80.20;;;;;;4965217;28;20434;-70
2022/11/13 13:09:32;;;;;;;2.13;2.03;;;11.30;80.30;;;;;;4967056;28;20489;-73
2022/11/13 13:12:40;;;;;;;1.70;1.60;;;11.30;80.30;;;;;;4964748;28;21021;-73
2022/11/13 13:16:09;;;;;;;2.40;1.60;;;11.30;80.30;;;;;;4967669;28;20861;-73
2022/11/13 13:19:23;;;;;;;1.20;0.97;;;11.30;80.20;;;;;;4969169;28;20431;-70
2022/11/13 13:22:26;;;;;;;1.27;1.17;;;11.30;80.30;;;;;;4965242;28;20463;-73
2022/11/13 13:25:26;;;;;;;1.20;1.10;;;11.30;80.30;;;;;;4964386;28;20593;-73
2022/11/13 13:28:22;;;;;;;1.60;1.50;;;11.30;80.30;;;;;;4968776;28;20474;-73
2022/11/13 13:31:22;;;;;;;1.37;1.20;;;11.30;80.50;;;;;;4962323;28;20473;-73
2022/11/13 13:34:29;;;;;;;1.30;1.20;;;11.30;80.40;;;;;;4968308;28;20439;-73
2022/11/13 13:37:33;;;;;;;1.43;1.23;;;11.30;80.40;;;;;;4969359;28;20553;-70
2022/11/13 13:40:33;;;;;;;1.80;1.70;;;11.30;80.50;;;;;;4968580;28;20470;-70
2022/11/13 13:43:33;;;;;;;1.53;1.30;;;11.30;80.50;;;;;;4969623;28;20415;-70
2022/11/13 13:46:23;;;;;;;1.50;1.40;;;11.30;80.50;;;;;;4968292;28;20849;-73
2022/11/13 13:49:14;;;;;;;2.07;1.77;;;11.30;80.50;;;;;;4971499;28;20533;-73
2022/11/13 13:52:04;;;;;;;1.00;0.90;;;11.40;80.60;;;;;;4971379;28;20458;-73
2022/11/13 13:54:52;;;;;;;1.70;1.60;;;11.30;80.40;;;;;;4970342;28;20458;-73
2022/11/13 13:57:41;;;;;;;1.53;1.43;;;11.30;80.50;;;;;;4971934;28;20830;-69
2022/11/13 14:00:39;;;;;;;1.47;1.03;;;11.40;80.60;;;;;;4969012;28;20552;-69
2022/11/13 14:03:48;;;;;;;1.40;1.30;;;11.40;80.50;;;;;;4971388;28;20419;-70
2022/11/13 14:06:35;;;;;;;1.40;1.30;;;11.40;80.60;;;;;;4970344;28;21005;-69
2022/11/13 14:09:24;;;;;;;1.60;1.40;;;11.40;80.60;;;;;;4970544;28;20486;-70
2022/11/13 14:12:19;;;;;;;1.80;1.60;;;11.40;80.60;;;;;;4966041;28;20577;-70
2022/11/13 14:15:21;;;;;;;1.23;1.13;;;11.40;80.50;;;;;;4964791;28;20527;-70
2022/11/13 14:18:11;;;;;;;1.37;1.20;;;11.40;80.60;;;;;;4967686;28;20450;-69
2022/11/13 14:21:00;;;;;;;1.17;1.07;;;11.40;80.70;;;;;;4965207;28;20819;-69
2022/11/13 14:23:49;;;;;;;4.37;1.03;;;11.40;80.50;;;;;;4961482;28;20457;-69
2022/11/13 14:26:36;;;;;;;1.37;1.23;;;11.40;80.60;;;;;;4969622;28;20467;-70
2022/11/13 14:29:34;;;;;;;1.63;1.53;;;11.40;81.80;;;;;;4969480;28;20474;-70
2022/11/13 14:32:25;;;;;;;1.37;1.17;;;11.40;80.60;;;;;;4962916;28;20553;-69
2022/11/13 14:35:20;;;;;;;2.20;1.07;;;11.30;80.40;;;;;;4967911;28;20438;-69
2022/11/13 14:38:19;;;;;;;1.10;1.00;;;11.40;80.70;;;;;;4965289;28;20469;-69
2022/11/13 14:41:06;;;;;;;1.60;1.50;;;11.40;80.60;;;;;;4970441;28;20446;-70
2022/11/13 14:43:54;;;;;;;1.30;1.20;;;11.40;80.60;;;;;;4965728;28;20441;-69
2022/11/13 14:46:44;;;;;;;1.00;0.90;;;11.40;80.60;;;;;;4963831;28;20982;-69
2022/11/13 14:49:32;;;;;;;1.37;1.10;;;11.30;80.50;;;;;;4970541;28;20475;-69
2022/11/13 14:55:25;;;;;;;1.80;1.70;;;11.40;80.50;;;;;;4966948;28;20473;-69
2022/11/13 14:58:13;;;;;;;1.30;1.20;;;11.40;80.50;;;;;;4969904;28;20773;-69
2022/11/13 15:01:13;;;;;;;1.33;1.00;;;11.40;80.50;;;;;;4963280;28;20625;-69
2022/11/13 15:04:01;;;;;;;1.20;0.97;;;11.40;80.60;;;;;;4958314;28;20444;-68
2022/11/13 15:06:49;;;;;;;1.30;1.20;;;11.40;80.70;;;;;;4961199;28;20618;-67
2022/11/13 15:09:36;;;;;;;1.20;1.10;;;11.40;80.60;;;;;;4968925;28;20537;-69